sensor_id;sensor_type;location;lat;lon;timestamp;pressure;altitude;pressure_sealevel;temperature;humidity
57827;BME280;43656;57.746;11.780;2023-05-21T00:02:02;102485.97;;;14.83;90.58
57827;BME280;43656;57.746;11.780;2023-05-21T00:04:28;102425.38;;;14.46;90.58
57827;BME280;43656;57.746;11.780;2023-05-21T00:06:56;102487.59;;;14.77;90.51
57827;BME280;43656;57.746;11.780;2023-05-21T00:09:23;102486.25;;;14.73;90.32
57827;BME280;43656;57.746;11.780;2023-05-21T00:11:48;102486.09;;;14.75;90.49
57827;BME280;43656;57.746;11.780;2023-05-21T00:14:14;102490.47;;;14.76;90.13
57827;BME280;43656;57.746;11.780;2023-05-21T00:16:39;102459.72;;;14.54;90.52
57827;BME280;43656;57.746;11.780;2023-05-21T00:19:05;102487.84;;;14.68;90.43
57827;BME280;43656;57.746;11.780;2023-05-21T00:21:30;102474.00;;;14.63;90.26
57827;BME280;43656;57.746;11.780;2023-05-21T00:23:56;102470.00;;;14.59;90.01
57827;BME280;43656;57.746;11.780;2023-05-21T00:26:22;102483.63;;;14.65;89.78
57827;BME280;43656;57.746;11.780;2023-05-21T00:28:50;102451.25;;;14.49;89.75
57827;BME280;43656;57.746;11.780;2023-05-21T00:31:15;102471.88;;;14.58;89.91
57827;BME280;43656;57.746;11.780;2023-05-21T00:33:42;102459.59;;;14.47;90.11
57827;BME280;43656;57.746;11.780;2023-05-21T00:36:07;102468.56;;;14.48;89.98
57827;BME280;43656;57.746;11.780;2023-05-21T00:38:33;102471.41;;;14.54;89.99
57827;BME280;43656;57.746;11.780;2023-05-21T00:41:02;102470.72;;;14.52;90.20
57827;BME280;43656;57.746;11.780;2023-05-21T00:43:27;102469.06;;;14.51;90.14
57827;BME280;43656;57.746;11.780;2023-05-21T00:45:53;102465.84;;;14.48;89.75
57827;BME280;43656;57.746;11.780;2023-05-21T00:48:20;102468.56;;;14.48;89.68
57827;BME280;43656;57.746;11.780;2023-05-21T00:50:46;102469.56;;;14.47;90.09
57827;BME280;43656;57.746;11.780;2023-05-21T00:53:13;102470.94;;;14.43;89.80
57827;BME280;43656;57.746;11.780;2023-05-21T00:55:41;102461.72;;;14.37;89.99
57827;BME280;43656;57.746;11.780;2023-05-21T00:58:07;102479.09;;;14.43;89.71
57827;BME280;43656;57.746;11.780;2023-05-21T01:00:33;102473.66;;;14.43;89.73
57827;BME280;43656;57.746;11.780;2023-05-21T01:02:59;102491.97;;;14.41;89.96
57827;BME280;43656;57.746;11.780;2023-05-21T01:05:29;102486.72;;;14.39;89.68
57827;BME280;43656;57.746;11.780;2023-05-21T01:07:55;102482.50;;;14.37;89.39
57827;BME280;43656;57.746;11.780;2023-05-21T01:10:22;102488.13;;;14.35;89.53
57827;BME280;43656;57.746;11.780;2023-05-21T01:12:48;102479.34;;;14.33;89.67
57827;BME280;43656;57.746;11.780;2023-05-21T01:15:15;102486.81;;;14.31;89.90
57827;BME280;43656;57.746;11.780;2023-05-21T01:17:40;102486.81;;;14.31;89.69
57827;BME280;43656;57.746;11.780;2023-05-21T01:20:07;102488.84;;;14.29;89.67
57827;BME280;43656;57.746;11.780;2023-05-21T01:22:41;102475.56;;;14.19;89.73
57827;BME280;43656;57.746;11.780;2023-05-21T01:25:08;102481.19;;;14.18;89.63
57827;BME280;43656;57.746;11.780;2023-05-21T01:27:34;102490.78;;;14.20;89.51
57827;BME280;43656;57.746;11.780;2023-05-21T01:29:59;102473.94;;;14.10;89.60
57827;BME280;43656;57.746;11.780;2023-05-21T01:32:43;102480.22;;;14.10;89.49
57827;BME280;43656;57.746;11.780;2023-05-21T01:35:14;102471.69;;;13.99;89.50
57827;BME280;43656;57.746;11.780;2023-05-21T01:40:40;102487.38;;;14.03;89.79
57827;BME280;43656;57.746;11.780;2023-05-21T01:43:09;102485.00;;;14.00;89.65
57827;BME280;43656;57.746;11.780;2023-05-21T01:45:39;102475.09;;;13.93;89.79
57827;BME280;43656;57.746;11.780;2023-05-21T01:48:06;102482.69;;;13.97;89.83
57827;BME280;43656;57.746;11.780;2023-05-21T01:50:33;102487.09;;;13.98;89.72
57827;BME280;43656;57.746;11.780;2023-05-21T01:52:58;102485.56;;;13.96;89.75
57827;BME280;43656;57.746;11.780;2023-05-21T01:55:28;102484.06;;;13.93;90.03
57827;BME280;43656;57.746;11.780;2023-05-21T01:57:54;102494.72;;;13.95;89.78
57827;BME280;43656;57.746;11.780;2023-05-21T02:00:21;102493.22;;;13.92;89.85
57827;BME280;43656;57.746;11.780;2023-05-21T02:02:47;102492.53;;;13.90;90.07
57827;BME280;43656;57.746;11.780;2023-05-21T02:05:13;102485.66;;;13.88;90.39
57827;BME280;43656;57.746;11.780;2023-05-21T02:07:38;102487.19;;;13.82;90.14
57827;BME280;43656;57.746;11.780;2023-05-21T02:10:05;102482.13;;;13.79;90.29
57827;BME280;43656;57.746;11.780;2023-05-21T02:12:30;102486.34;;;13.81;90.36
57827;BME280;43656;57.746;11.780;2023-05-21T02:14:56;102476.88;;;13.77;90.36
57827;BME280;43656;57.746;11.780;2023-05-21T02:17:22;102466.69;;;13.65;90.43
57827;BME280;43656;57.746;11.780;2023-05-21T02:19:48;102464.97;;;13.63;90.49
57827;BME280;43656;57.746;11.780;2023-05-21T02:22:14;102483.56;;;13.67;90.72
57827;BME280;43656;57.746;11.780;2023-05-21T02:24:40;102482.25;;;13.62;90.16
57827;BME280;43656;57.746;11.780;2023-05-21T02:27:05;102471.50;;;13.46;90.39
57827;BME280;43656;57.746;11.780;2023-05-21T02:29:33;102482.34;;;13.46;90.19
57827;BME280;43656;57.746;11.780;2023-05-21T02:31:58;102484.06;;;13.39;90.23
57827;BME280;43656;57.746;11.780;2023-05-21T02:34:23;102471.09;;;13.34;90.37
57827;BME280;43656;57.746;11.780;2023-05-21T02:36:49;102482.03;;;13.41;90.44
57827;BME280;43656;57.746;11.780;2023-05-21T02:39:17;102469.38;;;13.33;90.72
57827;BME280;43656;57.746;11.780;2023-05-21T02:41:44;102477.28;;;13.43;90.80
57827;BME280;43656;57.746;11.780;2023-05-21T02:44:10;102482.34;;;13.46;90.56
57827;BME280;43656;57.746;11.780;2023-05-21T02:46:36;102471.50;;;13.46;90.81
57827;BME280;43656;57.746;11.780;2023-05-21T02:49:01;102467.97;;;13.46;90.82
57827;BME280;43656;57.746;11.780;2023-05-21T02:51:27;102475.88;;;13.55;90.79
57827;BME280;43656;57.746;11.780;2023-05-21T02:53:52;102474.34;;;13.53;90.93
57827;BME280;43656;57.746;11.780;2023-05-21T02:56:17;102477.53;;;13.56;91.02
57827;BME280;43656;57.746;11.780;2023-05-21T02:58:44;102476.09;;;13.46;90.91
57827;BME280;43656;57.746;11.780;2023-05-21T03:01:09;102490.91;;;13.58;90.88
57827;BME280;43656;57.746;11.780;2023-05-21T03:03:35;102467.13;;;13.45;90.96
57827;BME280;43656;57.746;11.780;2023-05-21T03:06:02;102486.69;;;13.55;90.73
57827;BME280;43656;57.746;11.780;2023-05-21T03:08:27;102477.06;;;13.53;90.92
57827;BME280;43656;57.746;11.780;2023-05-21T03:10:53;102488.84;;;13.60;90.56
57827;BME280;43656;57.746;11.780;2023-05-21T03:13:19;102492.22;;;13.62;90.51
57827;BME280;43656;57.746;11.780;2023-05-21T03:15:45;102485.50;;;13.58;90.33
57827;BME280;43656;57.746;11.780;2023-05-21T03:18:10;102480.25;;;13.56;90.18
57827;BME280;43656;57.746;11.780;2023-05-21T03:20:36;102461.38;;;13.48;89.82
57827;BME280;43656;57.746;11.780;2023-05-21T03:23:08;102480.56;;;13.61;89.44
57827;BME280;43656;57.746;11.780;2023-05-21T03:25:33;102478.03;;;13.60;89.05
57827;BME280;43656;57.746;11.780;2023-05-21T03:28:01;102481.19;;;13.72;88.82
57827;BME280;43656;57.746;11.780;2023-05-21T03:30:26;102476.72;;;14.25;86.84
57827;BME280;43656;57.746;11.780;2023-05-21T03:32:52;102479.16;;;15.02;83.46
57827;BME280;43656;57.746;11.780;2023-05-21T03:35:17;102474.00;;;15.22;82.15
57827;BME280;43656;57.746;11.780;2023-05-21T03:37:43;102474.59;;;16.11;78.87
57827;BME280;43656;57.746;11.780;2023-05-21T03:40:08;102483.59;;;16.89;75.36
57827;BME280;43656;57.746;11.780;2023-05-21T03:42:34;102486.75;;;17.41;72.68
57827;BME280;43656;57.746;11.780;2023-05-21T03:45:00;102484.00;;;17.96;70.65
57827;BME280;43656;57.746;11.780;2023-05-21T03:47:26;102479.22;;;18.38;68.85
57827;BME280;43656;57.746;11.780;2023-05-21T03:49:51;102474.78;;;18.76;67.12
57827;BME280;43656;57.746;11.780;2023-05-21T03:52:16;102482.88;;;19.10;65.54
57827;BME280;43656;57.746;11.780;2023-05-21T03:54:42;102476.72;;;19.28;64.36
57827;BME280;43656;57.746;11.780;2023-05-21T03:57:08;102478.72;;;19.45;63.38
57827;BME280;43656;57.746;11.780;2023-05-21T03:59:33;102477.16;;;19.63;62.27
57827;BME280;43656;57.746;11.780;2023-05-21T04:01:59;102476.59;;;19.92;61.13
57827;BME280;43656;57.746;11.780;2023-05-21T04:04:24;102478.78;;;20.09;59.64
57827;BME280;43656;57.746;11.780;2023-05-21T04:06:50;102473.94;;;20.36;58.72
57827;BME280;43656;57.746;11.780;2023-05-21T04:09:15;102482.38;;;20.59;57.19
57827;BME280;43656;57.746;11.780;2023-05-21T04:11:41;102482.47;;;20.71;56.41
57827;BME280;43656;57.746;11.780;2023-05-21T04:14:06;102478.91;;;20.89;55.19
57827;BME280;43656;57.746;11.780;2023-05-21T04:16:32;102484.56;;;21.13;54.64
57827;BME280;43656;57.746;11.780;2023-05-21T04:18:59;102466.19;;;21.31;53.17
57827;BME280;43656;57.746;11.780;2023-05-21T04:21:24;102486.38;;;21.67;52.14
57827;BME280;43656;57.746;11.780;2023-05-21T04:23:50;102479.44;;;21.95;51.01
57827;BME280;43656;57.746;11.780;2023-05-21T04:26:18;102472.16;;;22.31;49.83
57827;BME280;43656;57.746;11.780;2023-05-21T04:28:43;102482.06;;;22.55;49.22
57827;BME280;43656;57.746;11.780;2023-05-21T04:31:10;102485.28;;;22.64;48.68
57827;BME280;43656;57.746;11.780;2023-05-21T04:33:37;102481.22;;;22.78;48.07
57827;BME280;43656;57.746;11.780;2023-05-21T04:36:02;102467.38;;;22.96;47.04
57827;BME280;43656;57.746;11.780;2023-05-21T04:38:28;102466.63;;;23.13;46.42
57827;BME280;43656;57.746;11.780;2023-05-21T04:40:53;102472.78;;;23.20;45.81
57827;BME280;43656;57.746;11.780;2023-05-21T04:43:19;102477.03;;;23.39;45.24
57827;BME280;43656;57.746;11.780;2023-05-21T04:45:54;102474.00;;;23.53;44.63
57827;BME280;43656;57.746;11.780;2023-05-21T04:48:23;102469.03;;;23.66;44.00
57827;BME280;43656;57.746;11.780;2023-05-21T04:50:51;102468.91;;;23.73;43.93
57827;BME280;43656;57.746;11.780;2023-05-21T04:53:18;102477.34;;;23.83;43.35
57827;BME280;43656;57.746;11.780;2023-05-21T04:55:43;102474.19;;;23.91;43.26
57827;BME280;43656;57.746;11.780;2023-05-21T04:58:09;102448.63;;;23.91;42.85
57827;BME280;43656;57.746;11.780;2023-05-21T05:00:38;102462.22;;;23.98;42.89
57827;BME280;43656;57.746;11.780;2023-05-21T05:03:04;102457.41;;;23.76;42.83
57827;BME280;43656;57.746;11.780;2023-05-21T05:05:29;102457.09;;;23.89;42.49
57827;BME280;43656;57.746;11.780;2023-05-21T05:07:55;102444.84;;;23.80;42.50
57827;BME280;43656;57.746;11.780;2023-05-21T05:10:22;102464.53;;;23.89;42.37
57827;BME280;43656;57.746;11.780;2023-05-21T05:12:48;102458.19;;;23.88;42.47
57827;BME280;43656;57.746;11.780;2023-05-21T05:15:13;102462.69;;;23.78;42.69
57827;BME280;43656;57.746;11.780;2023-05-21T05:17:39;102458.59;;;23.80;42.32
57827;BME280;43656;57.746;11.780;2023-05-21T05:20:08;102463.03;;;23.81;42.04
57827;BME280;43656;57.746;11.780;2023-05-21T05:22:34;102464.38;;;23.67;42.28
57827;BME280;43656;57.746;11.780;2023-05-21T05:24:59;102455.59;;;23.53;42.65
57827;BME280;43656;57.746;11.780;2023-05-21T05:27:25;102466.50;;;23.48;42.40
57827;BME280;43656;57.746;11.780;2023-05-21T05:29:50;102459.09;;;23.49;42.33
57827;BME280;43656;57.746;11.780;2023-05-21T05:32:16;102461.53;;;23.33;42.34
57827;BME280;43656;57.746;11.780;2023-05-21T05:34:43;102459.19;;;23.25;42.26
57827;BME280;43656;57.746;11.780;2023-05-21T05:37:09;102462.69;;;23.37;42.22
57827;BME280;43656;57.746;11.780;2023-05-21T05:39:34;102469.16;;;22.79;43.24
57827;BME280;43656;57.746;11.780;2023-05-21T05:42:00;102455.81;;;22.36;43.99
57827;BME280;43656;57.746;11.780;2023-05-21T05:44:26;102464.75;;;22.31;44.12
57827;BME280;43656;57.746;11.780;2023-05-21T05:46:51;102450.31;;;22.24;44.36
57827;BME280;43656;57.746;11.780;2023-05-21T05:49:17;102457.47;;;22.25;44.25
57827;BME280;43656;57.746;11.780;2023-05-21T05:51:42;102424.09;;;22.16;43.97
57827;BME280;43656;57.746;11.780;2023-05-21T05:54:08;102447.94;;;22.39;43.93
57827;BME280;43656;57.746;11.780;2023-05-21T05:56:33;102452.13;;;22.54;43.58
57827;BME280;43656;57.746;11.780;2023-05-21T05:58:59;102450.06;;;22.61;43.23
57827;BME280;43656;57.746;11.780;2023-05-21T06:01:24;102454.50;;;22.62;42.86
57827;BME280;43656;57.746;11.780;2023-05-21T06:03:51;102456.16;;;22.63;42.73
57827;BME280;43656;57.746;11.780;2023-05-21T06:06:16;102449.59;;;22.64;42.78
57827;BME280;43656;57.746;11.780;2023-05-21T06:08:42;102454.56;;;22.90;42.23
57827;BME280;43656;57.746;11.780;2023-05-21T06:11:07;102457.91;;;23.04;42.22
57827;BME280;43656;57.746;11.780;2023-05-21T06:13:34;102445.72;;;23.12;41.95
57827;BME280;43656;57.746;11.780;2023-05-21T06:15:59;102448.34;;;23.18;41.52
57827;BME280;43656;57.746;11.780;2023-05-21T06:18:25;102443.06;;;23.17;41.16
57827;BME280;43656;57.746;11.780;2023-05-21T06:20:50;102443.81;;;23.12;41.07
57827;BME280;43656;57.746;11.780;2023-05-21T06:23:16;102455.75;;;23.18;41.09
57827;BME280;43656;57.746;11.780;2023-05-21T06:25:41;102447.09;;;23.26;40.90
57827;BME280;43656;57.746;11.780;2023-05-21T06:28:07;102445.00;;;23.45;40.43
57827;BME280;43656;57.746;11.780;2023-05-21T06:30:32;102454.28;;;23.56;40.31
57827;BME280;43656;57.746;11.780;2023-05-21T06:32:58;102428.22;;;23.58;39.96
57827;BME280;43656;57.746;11.780;2023-05-21T06:35:23;102400.91;;;23.52;39.38
57827;BME280;43656;57.746;11.780;2023-05-21T06:37:49;102442.44;;;23.84;39.21
57827;BME280;43656;57.746;11.780;2023-05-21T06:40:14;102447.53;;;23.92;39.63
57827;BME280;43656;57.746;11.780;2023-05-21T06:42:40;102449.19;;;24.10;38.87
57827;BME280;43656;57.746;11.780;2023-05-21T06:45:06;102451.03;;;24.04;38.99
57827;BME280;43656;57.746;11.780;2023-05-21T06:47:31;102407.56;;;23.84;38.66
57827;BME280;43656;57.746;11.780;2023-05-21T06:49:58;102451.78;;;24.17;38.26
57827;BME280;43656;57.746;11.780;2023-05-21T06:52:23;102452.09;;;24.20;37.98
57827;BME280;43656;57.746;11.780;2023-05-21T06:54:50;102446.94;;;24.24;38.10
57827;BME280;43656;57.746;11.780;2023-05-21T06:57:16;102450.78;;;24.23;37.99
57827;BME280;43656;57.746;11.780;2023-05-21T06:59:41;102454.50;;;24.33;37.30
57827;BME280;43656;57.746;11.780;2023-05-21T07:02:07;102451.84;;;24.38;37.55
57827;BME280;43656;57.746;11.780;2023-05-21T07:04:32;102440.38;;;24.42;37.21
57827;BME280;43656;57.746;11.780;2023-05-21T07:06:59;102450.34;;;24.65;36.96
57827;BME280;43656;57.746;11.780;2023-05-21T07:09:25;102456.69;;;24.65;36.69
57827;BME280;43656;57.746;11.780;2023-05-21T07:11:50;102453.78;;;24.55;36.94
57827;BME280;43656;57.746;11.780;2023-05-21T07:14:17;102452.78;;;24.61;36.39
57827;BME280;43656;57.746;11.780;2023-05-21T07:16:43;102461.16;;;24.71;35.85
57827;BME280;43656;57.746;11.780;2023-05-21T07:19:08;102439.16;;;24.71;35.96
57827;BME280;43656;57.746;11.780;2023-05-21T07:21:34;102444.34;;;24.68;35.80
57827;BME280;43656;57.746;11.780;2023-05-21T07:23:59;102435.03;;;24.35;35.35
57827;BME280;43656;57.746;11.780;2023-05-21T07:26:24;102458.13;;;24.51;35.74
57827;BME280;43656;57.746;11.780;2023-05-21T07:28:50;102457.22;;;24.45;35.56
57827;BME280;43656;57.746;11.780;2023-05-21T07:31:16;102450.53;;;24.58;35.93
57827;BME280;43656;57.746;11.780;2023-05-21T07:33:41;102449.00;;;24.33;35.04
57827;BME280;43656;57.746;11.780;2023-05-21T07:36:08;102455.44;;;24.39;35.45
57827;BME280;43656;57.746;11.780;2023-05-21T07:38:34;102446.28;;;24.00;34.94
57827;BME280;43656;57.746;11.780;2023-05-21T07:40:59;102446.72;;;23.91;35.04
57827;BME280;43656;57.746;11.780;2023-05-21T07:43:25;102449.34;;;24.20;35.31
57827;BME280;43656;57.746;11.780;2023-05-21T07:45:50;102447.28;;;23.94;34.55
57827;BME280;43656;57.746;11.780;2023-05-21T07:48:17;102449.03;;;24.00;34.41
57827;BME280;43656;57.746;11.780;2023-05-21T07:50:42;102446.19;;;24.28;34.98
57827;BME280;43656;57.746;11.780;2023-05-21T07:53:09;102447.19;;;24.56;34.34
57827;BME280;43656;57.746;11.780;2023-05-21T07:55:36;102440.88;;;24.22;34.00
57827;BME280;43656;57.746;11.780;2023-05-21T07:58:02;102446.22;;;23.95;33.62
57827;BME280;43656;57.746;11.780;2023-05-21T08:00:41;102437.69;;;23.96;33.98
57827;BME280;43656;57.746;11.780;2023-05-21T08:03:06;102439.84;;;23.49;34.21
57827;BME280;43656;57.746;11.780;2023-05-21T08:05:32;102445.34;;;23.77;34.20
57827;BME280;43656;57.746;11.780;2023-05-21T08:07:57;102452.69;;;24.05;34.33
57827;BME280;43656;57.746;11.780;2023-05-21T08:10:23;102444.00;;;23.80;34.35
57827;BME280;43656;57.746;11.780;2023-05-21T08:12:48;102453.06;;;23.35;34.24
57827;BME280;43656;57.746;11.780;2023-05-21T08:15:14;102443.84;;;23.86;33.86
57827;BME280;43656;57.746;11.780;2023-05-21T08:17:39;102440.28;;;23.57;37.74
57827;BME280;43656;57.746;11.780;2023-05-21T08:20:05;102441.72;;;23.31;38.31
57827;BME280;43656;57.746;11.780;2023-05-21T08:22:31;102443.50;;;22.97;39.06
57827;BME280;43656;57.746;11.780;2023-05-21T08:24:56;102434.66;;;22.83;40.94
57827;BME280;43656;57.746;11.780;2023-05-21T08:27:22;102466.06;;;22.75;39.30
57827;BME280;43656;57.746;11.780;2023-05-21T08:29:49;102457.34;;;22.20;40.48
57827;BME280;43656;57.746;11.780;2023-05-21T08:32:14;102453.22;;;21.87;47.44
57827;BME280;43656;57.746;11.780;2023-05-21T08:34:39;102463.13;;;22.00;47.80
57827;BME280;43656;57.746;11.780;2023-05-21T08:37:05;102457.16;;;21.91;46.57
57827;BME280;43656;57.746;11.780;2023-05-21T08:39:31;102462.06;;;21.59;47.70
57827;BME280;43656;57.746;11.780;2023-05-21T08:42:03;102455.09;;;21.26;48.79
57827;BME280;43656;57.746;11.780;2023-05-21T08:44:33;102446.91;;;21.08;50.07
57827;BME280;43656;57.746;11.780;2023-05-21T08:47:05;102453.44;;;21.07;48.41
57827;BME280;43656;57.746;11.780;2023-05-21T08:49:33;102443.78;;;20.86;46.98
57827;BME280;43656;57.746;11.780;2023-05-21T08:52:00;102444.56;;;20.75;47.14
57827;BME280;43656;57.746;11.780;2023-05-21T08:54:26;102455.88;;;20.78;47.02
57827;BME280;43656;57.746;11.780;2023-05-21T08:56:53;102442.78;;;20.62;47.47
57827;BME280;43656;57.746;11.780;2023-05-21T08:59:20;102435.94;;;20.53;49.46
57827;BME280;43656;57.746;11.780;2023-05-21T09:01:46;102441.22;;;20.91;49.19
57827;BME280;43656;57.746;11.780;2023-05-21T09:04:14;102439.75;;;20.88;48.75
57827;BME280;43656;57.746;11.780;2023-05-21T09:06:41;102433.75;;;20.61;52.05
57827;BME280;43656;57.746;11.780;2023-05-21T09:09:17;102440.50;;;20.59;55.61
57827;BME280;43656;57.746;11.780;2023-05-21T09:11:48;102439.72;;;20.77;57.34
57827;BME280;43656;57.746;11.780;2023-05-21T09:14:14;102439.63;;;20.40;60.56
57827;BME280;43656;57.746;11.780;2023-05-21T09:16:40;102440.16;;;20.49;63.28
57827;BME280;43656;57.746;11.780;2023-05-21T09:19:06;102442.81;;;20.37;63.00
57827;BME280;43656;57.746;11.780;2023-05-21T09:21:31;102437.41;;;20.30;58.93
57827;BME280;43656;57.746;11.780;2023-05-21T09:23:58;102437.84;;;20.27;60.44
57827;BME280;43656;57.746;11.780;2023-05-21T09:26:25;102421.56;;;20.14;61.61
57827;BME280;43656;57.746;11.780;2023-05-21T09:28:56;102429.59;;;19.84;64.04
57827;BME280;43656;57.746;11.780;2023-05-21T09:31:25;102437.00;;;20.02;63.96
57827;BME280;43656;57.746;11.780;2023-05-21T09:33:53;102415.53;;;19.80;65.01
57827;BME280;43656;57.746;11.780;2023-05-21T09:36:22;102424.19;;;19.77;66.44
57827;BME280;43656;57.746;11.780;2023-05-21T09:38:47;102418.16;;;19.62;67.88
57827;BME280;43656;57.746;11.780;2023-05-21T09:41:13;102422.72;;;19.75;66.52
57827;BME280;43656;57.746;11.780;2023-05-21T09:43:42;102416.59;;;20.04;65.14
57827;BME280;43656;57.746;11.780;2023-05-21T09:46:09;102415.44;;;19.93;62.51
57827;BME280;43656;57.746;11.780;2023-05-21T09:48:39;102416.59;;;20.04;64.44
57827;BME280;43656;57.746;11.780;2023-05-21T09:51:23;102404.38;;;19.82;65.40
57827;BME280;43656;57.746;11.780;2023-05-21T09:53:54;102425.28;;;19.63;66.30
57827;BME280;43656;57.746;11.780;2023-05-21T09:56:26;102415.84;;;19.65;64.14
57827;BME280;43656;57.746;11.780;2023-05-21T09:59:02;102421.09;;;19.67;62.49
57827;BME280;43656;57.746;11.780;2023-05-21T10:01:31;102418.19;;;19.55;65.14
57827;BME280;43656;57.746;11.780;2023-05-21T10:04:05;102393.94;;;19.40;64.43
57827;BME280;43656;57.746;11.780;2023-05-21T10:06:31;102389.00;;;19.24;65.77
57827;BME280;43656;57.746;11.780;2023-05-21T10:09:01;102405.81;;;19.21;66.19
57827;BME280;43656;57.746;11.780;2023-05-21T10:11:30;102406.47;;;19.48;61.98
57827;BME280;43656;57.746;11.780;2023-05-21T10:14:04;102393.81;;;19.60;61.65
57827;BME280;43656;57.746;11.780;2023-05-21T10:16:32;102404.72;;;19.92;61.11
57827;BME280;43656;57.746;11.780;2023-05-21T10:18:57;102398.63;;;20.15;59.17
57827;BME280;43656;57.746;11.780;2023-05-21T10:21:25;102392.44;;;20.26;59.13
57827;BME280;43656;57.746;11.780;2023-05-21T10:23:50;102394.13;;;20.46;59.41
57827;BME280;43656;57.746;11.780;2023-05-21T10:26:18;102387.25;;;20.61;56.91
57827;BME280;43656;57.746;11.780;2023-05-21T10:28:46;102366.06;;;20.57;54.59
57827;BME280;43656;57.746;11.780;2023-05-21T10:31:13;102381.78;;;20.80;54.17
57827;BME280;43656;57.746;11.780;2023-05-21T10:33:40;102377.97;;;20.99;53.77
57827;BME280;43656;57.746;11.780;2023-05-21T10:36:06;102380.22;;;21.02;52.53
57827;BME280;43656;57.746;11.780;2023-05-21T10:38:32;102384.31;;;21.11;52.12
57827;BME280;43656;57.746;11.780;2023-05-21T10:40:58;102386.09;;;21.06;50.27
57827;BME280;43656;57.746;11.780;2023-05-21T10:49:10;102377.56;;;20.96;53.32
57827;BME280;43656;57.746;11.780;2023-05-21T11:00:16;102377.91;;;20.69;58.30
57827;BME280;43656;57.746;11.780;2023-05-21T11:02:44;102373.50;;;20.86;58.39
57827;BME280;43656;57.746;11.780;2023-05-21T11:05:11;102373.81;;;20.78;57.60
57827;BME280;43656;57.746;11.780;2023-05-21T11:07:50;102367.78;;;20.88;55.29
57827;BME280;43656;57.746;11.780;2023-05-21T11:10:36;102362.97;;;21.02;54.48
57827;BME280;43656;57.746;11.780;2023-05-21T11:13:15;102363.63;;;21.16;53.79
57827;BME280;43656;57.746;11.780;2023-05-21T11:18:22;102366.25;;;21.41;52.31
57827;BME280;43656;57.746;11.780;2023-05-21T11:20:50;102355.06;;;21.42;51.73
57827;BME280;43656;57.746;11.780;2023-05-21T11:23:17;102344.00;;;21.37;50.85
57827;BME280;43656;57.746;11.780;2023-05-21T11:25:42;102362.22;;;21.43;50.20
57827;BME280;43656;57.746;11.780;2023-05-21T11:28:14;102361.56;;;21.71;49.41
57827;BME280;43656;57.746;11.780;2023-05-21T11:30:39;102352.41;;;21.77;49.38
57827;BME280;43656;57.746;11.780;2023-05-21T11:38:08;102331.44;;;22.07;49.67
57827;BME280;43656;57.746;11.780;2023-05-21T11:40:34;102344.91;;;22.08;49.12
57827;BME280;43656;57.746;11.780;2023-05-21T11:43:00;102336.78;;;21.78;48.74
57827;BME280;43656;57.746;11.780;2023-05-21T11:45:31;102337.28;;;22.10;49.15
57827;BME280;43656;57.746;11.780;2023-05-21T11:47:57;102349.78;;;22.53;47.79
57827;BME280;43656;57.746;11.780;2023-05-21T11:50:22;102348.06;;;22.64;47.77
57827;BME280;43656;57.746;11.780;2023-05-21T11:52:49;102349.44;;;22.49;47.97
57827;BME280;43656;57.746;11.780;2023-05-21T11:55:20;102345.59;;;22.50;48.29
57827;BME280;43656;57.746;11.780;2023-05-21T11:57:46;102337.31;;;22.22;47.38
57827;BME280;43656;57.746;11.780;2023-05-21T12:00:15;102341.94;;;22.10;46.88
57827;BME280;43656;57.746;11.780;2023-05-21T12:02:45;102340.63;;;22.00;47.47
57827;BME280;43656;57.746;11.780;2023-05-21T12:05:11;102329.53;;;22.31;47.05
57827;BME280;43656;57.746;11.780;2023-05-21T12:07:37;102339.75;;;22.59;45.75
57827;BME280;43656;57.746;11.780;2023-05-21T12:10:03;102313.50;;;22.51;45.68
57827;BME280;43656;57.746;11.780;2023-05-21T12:12:30;102311.38;;;22.53;46.10
57827;BME280;43656;57.746;11.780;2023-05-21T12:14:57;102336.53;;;22.90;45.59
57827;BME280;43656;57.746;11.780;2023-05-21T12:17:24;102308.75;;;22.87;45.33
57827;BME280;43656;57.746;11.780;2023-05-21T12:19:52;102336.31;;;22.92;45.42
57827;BME280;43656;57.746;11.780;2023-05-21T12:22:18;102317.72;;;22.82;44.59
57827;BME280;43656;57.746;11.780;2023-05-21T12:24:45;102331.75;;;22.97;44.83
57827;BME280;43656;57.746;11.780;2023-05-21T12:27:11;102332.31;;;22.71;44.67
57827;BME280;43656;57.746;11.780;2023-05-21T12:29:41;102329.84;;;22.58;44.55
57827;BME280;43656;57.746;11.780;2023-05-21T12:32:09;102331.78;;;22.45;44.66
57827;BME280;43656;57.746;11.780;2023-05-21T12:34:49;102318.44;;;22.14;44.99
57827;BME280;43656;57.746;11.780;2023-05-21T12:37:23;102328.69;;;22.07;46.00
57827;BME280;43656;57.746;11.780;2023-05-21T12:39:51;102330.28;;;22.26;46.41
57827;BME280;43656;57.746;11.780;2023-05-21T12:42:30;102325.72;;;22.43;46.50
57827;BME280;43656;57.746;11.780;2023-05-21T12:44:59;102318.78;;;22.41;46.62
57827;BME280;43656;57.746;11.780;2023-05-21T12:47:26;102297.47;;;22.31;46.38
57827;BME280;43656;57.746;11.780;2023-05-21T12:49:56;102327.63;;;22.43;46.10
57827;BME280;43656;57.746;11.780;2023-05-21T12:52:26;102312.13;;;22.37;46.91
57827;BME280;43656;57.746;11.780;2023-05-21T12:54:53;102316.16;;;22.86;46.04
57827;BME280;43656;57.746;11.780;2023-05-21T12:57:34;102314.44;;;23.09;45.25
57827;BME280;43656;57.746;11.780;2023-05-21T13:00:03;102304.16;;;23.04;45.00
57827;BME280;43656;57.746;11.780;2023-05-21T13:02:40;102324.63;;;22.96;45.95
57827;BME280;43656;57.746;11.780;2023-05-21T13:05:09;102308.00;;;22.63;47.32